createdAt,value
2022-09-07T00:05:00.538Z,10.85
2022-09-07T00:10:02.150Z,11.15
2022-09-07T00:15:10.101Z,13.18
2022-09-07T00:20:12.765Z,12.13
2022-09-07T00:25:14.311Z,12.43
2022-09-07T00:30:15.891Z,8.77
2022-09-07T00:35:17.385Z,6.38
2022-09-07T00:40:18.928Z,6.07
2022-09-07T00:45:21.558Z,8.05
2022-09-07T00:50:30.601Z,10.38
2022-09-07T00:55:33.635Z,9.35
2022-09-07T01:00:35.684Z,13.35
2022-09-07T01:05:53.666Z,12.05
2022-09-07T01:10:57.304Z,7.85
2022-09-07T01:16:10.504Z,8.02
2022-09-07T01:21:34.718Z,8.68
2022-09-07T01:26:58.939Z,4.95
2022-09-07T01:32:11.880Z,5.22
2022-09-07T01:37:32.389Z,6.93
2022-09-07T01:43:04.958Z,7.85
2022-09-07T01:48:10.870Z,7.63
2022-09-07T01:53:24.612Z,8.48
2022-09-07T01:58:39.833Z,9.88
2022-09-07T02:03:51.636Z,8.63
2022-09-07T02:09:01.022Z,9.30
2022-09-07T02:14:19.938Z,5.50
2022-09-07T02:19:25.068Z,6.97
2022-09-07T02:24:32.535Z,4.45
2022-09-07T02:29:34.104Z,10.20
2022-09-07T02:34:35.942Z,8.77
2022-09-07T02:39:38.462Z,15.77
2022-09-07T02:44:42.248Z,4.43
2022-09-07T02:50:17.923Z,6.90
2022-09-07T02:55:28.140Z,3.55
2022-09-07T03:00:34.693Z,4.30
2022-09-07T03:05:40.493Z,4.50
2022-09-07T03:10:43.491Z,4.75
2022-09-07T03:15:45.590Z,3.38
2022-09-07T03:20:47.204Z,5.05
2022-09-07T03:25:51.277Z,8.68
2022-09-07T03:30:52.810Z,7.72
2022-09-07T03:36:00.321Z,11.60
2022-09-07T03:41:03.988Z,9.85
2022-09-07T03:46:07.001Z,8.90
2022-09-07T03:51:10.605Z,8.18
2022-09-07T03:56:21.242Z,8.48
2022-09-07T04:01:25.225Z,11.30
2022-09-07T04:06:26.819Z,13.60
2022-09-07T04:11:28.309Z,12.52
2022-09-07T04:16:30.178Z,8.65
2022-09-07T04:21:33.095Z,8.10
2022-09-07T04:26:35.990Z,12.30
2022-09-07T04:31:37.656Z,15.48
2022-09-07T04:36:39.150Z,14.55
2022-09-07T04:41:40.681Z,10.90
2022-09-07T04:46:42.190Z,11.85
2022-09-07T04:51:44.349Z,9.32
2022-09-07T04:56:45.887Z,6.20
2022-09-07T05:01:47.425Z,9.18
2022-09-07T05:06:49.048Z,8.55
2022-09-07T05:11:50.858Z,8.43
2022-09-07T05:16:52.425Z,8.73
2022-09-07T05:21:53.962Z,7.35
2022-09-07T05:26:55.534Z,7.82
2022-09-07T05:31:57.419Z,10.27
2022-09-07T05:36:59.304Z,7.43
2022-09-07T05:42:00.891Z,9.65
2022-09-07T05:47:02.486Z,6.70
2022-09-07T05:52:04.093Z,4.90
2022-09-07T05:57:07.123Z,5.38
2022-09-07T06:02:14.755Z,5.90
2022-09-07T06:07:23.814Z,5.90
2022-09-07T06:12:25.351Z,4.22
2022-09-07T06:17:31.016Z,12.00
2022-09-07T06:22:38.191Z,8.90
2022-09-07T06:37:43.966Z,7.15
2022-09-07T06:42:45.492Z,4.35
2022-09-07T06:47:47.057Z,6.90
2022-09-07T06:58:10.015Z,7.65
2022-09-07T07:03:11.604Z,3.80
2022-09-07T07:08:13.201Z,4.90
2022-09-07T07:18:21.116Z,6.80
2022-09-07T07:23:22.929Z,4.30
2022-09-07T07:33:49.729Z,5.05
2022-09-07T07:39:00.898Z,3.65
2022-09-07T07:44:04.439Z,3.47
2022-09-07T07:49:05.960Z,5.15
2022-09-07T07:54:07.946Z,7.30
2022-09-07T07:59:12.603Z,6.25
2022-09-07T08:04:17.022Z,3.70
2022-09-07T08:09:18.464Z,6.35
2022-09-07T08:14:19.922Z,4.70
2022-09-07T08:19:21.386Z,3.75
2022-09-07T08:24:22.882Z,4.28
2022-09-07T08:29:24.245Z,4.32
2022-09-07T08:34:25.716Z,5.45
2022-09-07T08:39:27.225Z,4.00
2022-09-07T08:44:38.140Z,5.40
2022-09-07T08:49:53.766Z,4.13
2022-09-07T08:55:10.488Z,7.22
2022-09-07T09:00:15.659Z,6.28
2022-09-07T09:05:28.158Z,3.80
2022-09-07T09:10:48.373Z,4.20
2022-09-07T09:16:09.687Z,5.05
2022-09-07T09:21:17.004Z,7.93
2022-09-07T09:26:24.162Z,5.20
2022-09-07T09:31:34.166Z,4.78
2022-09-07T09:36:43.167Z,8.02
2022-09-07T09:41:44.621Z,5.47
2022-09-07T09:52:43.404Z,5.82
2022-09-07T10:08:37.095Z,5.32
2022-09-07T10:13:46.821Z,7.03
2022-09-07T10:18:57.639Z,5.20
2022-09-07T10:24:05.094Z,5.07
2022-09-07T10:29:16.500Z,4.65
2022-09-07T10:34:30.463Z,5.65
2022-09-07T10:39:36.999Z,3.80
2022-09-07T10:45:10.476Z,5.35
2022-09-07T10:50:26.367Z,6.95
2022-09-07T10:55:34.203Z,7.20
2022-09-07T11:00:55.885Z,3.70
2022-09-07T11:06:06.278Z,6.68
2022-09-07T11:17:01.090Z,5.00
2022-09-07T11:22:29.787Z,5.40
2022-09-07T11:27:39.263Z,5.75
2022-09-07T11:33:03.382Z,7.82
2022-09-07T11:38:32.974Z,8.15
2022-09-07T11:43:41.350Z,6.68
2022-09-07T11:48:55.282Z,9.93
2022-09-07T11:54:02.183Z,10.52
2022-09-07T11:59:39.908Z,9.30
2022-09-07T12:05:11.100Z,8.77
2022-09-07T12:10:48.100Z,12.07
2022-09-07T12:16:17.370Z,15.60
2022-09-07T12:21:51.207Z,14.05
2022-09-07T12:26:54.044Z,12.23
2022-09-07T12:31:59.806Z,14.27
2022-09-07T12:47:30.002Z,9.93
2022-09-07T12:52:45.702Z,10.25
2022-09-07T12:57:53.222Z,10.60
2022-09-07T13:09:14.921Z,9.13
2022-09-07T13:14:21.261Z,9.02
2022-09-07T13:19:50.701Z,7.22
2022-09-07T13:24:55.258Z,8.38
2022-09-07T13:30:04.937Z,7.68
2022-09-07T13:35:28.100Z,10.18
2022-09-07T13:40:40.243Z,6.40
2022-09-07T13:45:53.768Z,10.18
2022-09-07T13:51:13.518Z,10.63
2022-09-07T13:56:55.743Z,9.15
2022-09-07T14:01:58.368Z,7.93
2022-09-07T14:07:13.606Z,7.07
2022-09-07T14:12:21.019Z,8.05
2022-09-07T14:17:22.681Z,8.40
2022-09-07T14:22:31.343Z,10.80
2022-09-07T14:27:40.631Z,6.15
2022-09-07T14:32:43.082Z,8.43
2022-09-07T14:37:46.668Z,7.25
2022-09-07T14:42:54.218Z,6.60
2022-09-07T14:47:56.499Z,9.15
2022-09-07T14:58:23.668Z,7.57
2022-09-07T15:03:38.220Z,8.20
2022-09-07T15:08:45.478Z,6.40
2022-09-07T15:13:55.267Z,6.15
2022-09-07T15:19:16.902Z,4.13
2022-09-07T15:24:18.557Z,6.80
2022-09-07T15:29:21.902Z,9.75
2022-09-07T15:34:24.654Z,6.55
2022-09-07T15:39:29.624Z,7.00
2022-09-07T15:44:32.680Z,7.45
2022-09-07T15:49:34.856Z,5.57
2022-09-07T15:54:39.595Z,5.20
2022-09-07T15:59:41.461Z,6.18
2022-09-07T16:04:43.213Z,7.13
2022-09-07T16:09:45.241Z,8.80
2022-09-07T16:14:46.920Z,9.15
2022-09-07T16:19:48.370Z,7.72
2022-09-07T16:24:49.938Z,7.03
2022-09-07T16:29:51.726Z,8.85
2022-09-07T16:34:53.248Z,7.32
2022-09-07T16:39:54.806Z,8.18
2022-09-07T16:46:02.531Z,7.95
2022-09-07T16:50:17.883Z,8.15
2022-09-07T16:55:19.396Z,9.00
2022-09-07T17:00:20.898Z,7.57
2022-09-07T17:05:22.665Z,10.50
2022-09-07T17:10:24.466Z,10.90
2022-09-07T17:15:26.106Z,6.78
2022-09-07T17:20:28.254Z,12.48
2022-09-07T17:25:29.771Z,8.52
2022-09-07T17:30:32.997Z,6.47
2022-09-07T17:35:37.430Z,6.47
2022-09-07T17:40:39.095Z,9.02
2022-09-07T17:45:40.621Z,11.45
2022-09-07T17:50:42.580Z,9.15
2022-09-07T17:55:44.754Z,9.25
2022-09-07T18:00:46.251Z,8.70
2022-09-07T18:05:53.061Z,10.50
2022-09-07T18:16:19.623Z,16.17
2022-09-07T18:21:24.354Z,12.77
2022-09-07T18:26:26.366Z,12.57
2022-09-07T18:31:27.981Z,12.77
2022-09-07T18:36:29.953Z,15.05
2022-09-07T18:41:31.537Z,16.85
2022-09-07T18:46:33.067Z,14.27
2022-09-07T18:52:51.797Z,15.77
2022-09-07T18:56:58.201Z,17.27
2022-09-07T19:02:03.907Z,17.02
2022-09-07T19:07:07.126Z,14.50
2022-09-07T19:12:09.978Z,17.23
2022-09-07T19:17:11.862Z,12.82
2022-09-07T19:22:13.318Z,11.90
2022-09-07T19:27:14.872Z,14.57
2022-09-07T19:32:17.042Z,12.98
2022-09-07T19:37:18.553Z,14.65
2022-09-07T19:42:20.069Z,13.25
2022-09-07T19:47:23.170Z,10.70
2022-09-07T19:52:24.639Z,11.98
2022-09-07T19:57:26.364Z,12.57
2022-09-07T20:02:27.833Z,14.38
2022-09-07T20:07:29.335Z,10.88
2022-09-07T20:12:30.790Z,11.95
2022-09-07T20:17:35.344Z,10.35
2022-09-07T20:22:37.052Z,10.30
2022-09-07T20:27:38.523Z,10.98
2022-09-07T20:32:40.116Z,13.00
2022-09-07T20:37:41.557Z,13.55
2022-09-07T20:42:43.004Z,11.15
2022-09-07T20:47:44.696Z,14.30
2022-09-07T20:52:46.178Z,13.57
2022-09-07T20:57:47.659Z,14.45
2022-09-07T21:02:49.123Z,16.05
2022-09-07T21:07:50.570Z,16.17
2022-09-07T21:12:53.198Z,14.52
2022-09-07T21:17:54.663Z,14.02
2022-09-07T21:22:57.237Z,15.70
2022-09-07T21:27:58.670Z,15.80
2022-09-07T21:33:03.091Z,14.13
2022-09-07T21:38:04.826Z,14.32
2022-09-07T21:43:06.337Z,9.70
2022-09-07T21:48:07.810Z,13.23
2022-09-07T21:53:09.268Z,12.43
2022-09-07T21:58:10.708Z,13.48
2022-09-07T22:03:12.231Z,12.18
2022-09-07T22:08:17.207Z,16.63
2022-09-07T22:13:18.666Z,11.88
2022-09-07T22:18:20.142Z,12.38
2022-09-07T22:23:21.582Z,12.95
2022-09-07T22:28:23.044Z,14.63
2022-09-07T22:33:24.534Z,16.52
2022-09-07T22:38:27.579Z,18.38
2022-09-07T22:43:29.019Z,20.13
2022-09-07T22:48:31.060Z,19.02
2022-09-07T22:53:35.958Z,17.35
2022-09-07T22:58:38.406Z,21.67
2022-09-07T23:03:40.024Z,20.65
2022-09-07T23:08:42.308Z,17.58
2022-09-07T23:13:44.008Z,16.77
2022-09-07T23:18:45.622Z,18.25
2022-09-07T23:23:52.086Z,17.50
2022-09-07T23:28:58.587Z,14.60
2022-09-07T23:34:01.492Z,12.25
2022-09-07T23:39:03.758Z,16.45
2022-09-07T23:44:05.331Z,13.18
2022-09-07T23:49:06.798Z,12.57
2022-09-07T23:54:08.343Z,11.88
2022-09-07T23:59:09.990Z,10.70
